Station:LAKE CHARLES REGIONAL APState:LAID:KLCH
Latitude:30.12°NLongitude:-93.23°WElevation:9 feet
Station period of record:1961-11-01 ~ 2018-08-30,         1961-11-01 ~ 2018-08-30,         1961-11-01 ~ 2018-08-30,         ,         1961-11-01 ~ 2018-08-30,         1961-11-01 ~ 2018-08-30,         1961-11-01 ~ 2018-08-30,         ,         1961-11-01 ~ 2018-08-30,         1961-11-01 ~ 2018-08-30

SRCC F6 Daily Data

Temperature Precipitation Wind(kts)
Day Max Min Avg DFN Dpt Rel Hum HDD CDD Water Equiv DFN Snow Ice Snow Depth Avg Spd Res Spd Res Dir Peak Gust Obs
2018-08-01 95 73 84 1 69 63 0 19 0.00 -0.17 0.0 0 5.0 5.2 19 M 19
2018-08-02 93 73 83 -0 68 65 0 18 0.00 -0.17 0.0 0 8.4 7.0 24 M 20
2018-08-03 94 73 84 0 72 70 0 19 0.00 -0.17 0.0 0 10.3 5.0 54 17 21
2018-08-04 87 75 81 -2 74 82 0 16 0.00 -0.16 0.0 0 5.0 3.4 134 M 23
2018-08-05 94 74 84 1 73 77 0 19 0.24 0.07 0.0 0 5.8 5.4 105 26 22
2018-08-06 91 75 83 -0 74 81 0 18 0.21 0.04 0.0 0 5.4 4.1 92 21 23
2018-08-07 89 75 82 -1 74 85 0 17 0.14 -0.03 0.0 0 3.5 2.6 96 M 21
2018-08-08 92 75 84 0 74 78 0 19 0.00 -0.17 0.0 0 3.3 2.3 177 14 20
2018-08-09 92 76 84 1 75 79 0 19 T -0.17 0.0 0 3.0 2.5 184 15 15
2018-08-10 88 76 82 -1 75 83 0 17 0.20 0.05 0.0 0 2.6 0.7 213 20 14
2018-08-11 90 76 83 -0 75 80 0 18 0.06 -0.09 0.0 0 3.7 2.0 142 M 19
2018-08-12 93 77 85 2 76 79 0 20 0.00 -0.14 0.0 0 3.9 3.9 185 M 18
2018-08-13 93 74 84 0 74 74 0 19 0.00 -0.14 0.0 0 3.4 2.9 195 M 18
2018-08-14 93 76 84 1 74 74 0 20 0.00 -0.15 0.0 0 4.2 3.6 205 14 20
2018-08-15 94 77 86 2 75 73 0 21 0.00 -0.14 0.0 0 3.5 3.8 200 M 19
2018-08-16 95 78 86 3 75 72 0 22 0.00 -0.14 0.0 0 3.3 3.8 222 14 17
2018-08-17 94 79 86 3 75 72 0 22 0.00 -0.15 0.0 0 4.0 4.4 207 M 16
2018-08-18 95 80 88 4 76 72 0 23 0.00 -0.16 0.0 0 5.2 5.3 226 19 20
2018-08-19 95 79 87 4 76 71 0 22 0.01 -0.15 0.0 0 6.8 6.6 219 19 23
2018-08-20 94 76 85 2 76 71 0 20 0.12 -0.03 0.0 0 7.4 7.2 228 20 24
2018-08-21 98 79 88 6 76 71 0 24 0.02 -0.14 0.0 0 6.0 5.0 259 17 23
2018-08-22 97 77 87 4 70 62 0 22 0.00 -0.15 0.0 0 6.0 4.1 12 16 24
2018-08-23 94 73 84 1 68 63 0 19 0.00 -0.15 0.0 0 3.9 3.3 73 M 21
2018-08-24 96 75 86 3 72 69 0 21 0.00 -0.14 0.0 0 3.3 2.4 175 M 19
2018-08-25 95 77 86 3 74 71 0 21 0.00 -0.16 0.0 0 4.9 3.4 149 M 22
2018-08-26 93 78 86 3 75 79 0 21 0.30 0.15 0.0 0 5.1 4.6 117 34 23
2018-08-27 90 78 84 2 76 81 0 19 0.10 -0.04 0.0 0 4.9 4.4 133 M 23
2018-08-28 89 78 84 1 76 82 0 19 0.01 -0.15 0.0 0 5.2 4.8 126 22 22
2018-08-29 89 76 82 0 73 80 0 18 0.37 0.20 0.0 0 4.0 1.9 140 14 21
2018-08-30 93 74 84 1 74 77 0 19 0.20 0.03 0.0 0 4.7 2.8 107 M 20
2018-08-31 None None M M 73 72 None None None None None None 6.0 5.3 77 M 18
Ag/Sum 92.8 76.1 84.45 0 591 1.98
Norm 91.9 74.1 83.00 0 558 4.86
DFN 0.9 2.0 1.45 0 33 -2.88
Temperature Data Precipitation Data
AVERAGE MONTHLY 84.45 TOTAL FOR THE MONTH 1.98
DEPARTURE FROM NORMAL 1.45 DEPARTURE FROM NORMAL -2.88
HIGHEST 98 ON 2018-08-21 GREATEST 24HR TOTAL 0.37
LOWEST 73 ON 2018-08-23 NUMBER OF DAYS WITH
NUMBER OF DAYS WITH - 0.01 INCH OR MORE PRECIP 13
MAX 32 OR BELOW 0 - 0.10 INCH OR MORE PRECIP 9
MAX 90 OR ABOVE 25 - 0.50 INCH OR MORE PRECIP 0
MIN 32 OR BELOW 0 - 1.00 INCH OR MORE PRECIP 0
MIN 0 OR BELOW 0
HEATING DEGREE DAYS(BASE 65)
TOTAL THIS MONTH 0
DEPARTURE FROM NORMAL 33
COOLING DEGREE DAYS(BASE 65)
TOTAL THIS MONTH 591
DEPARTURE FROM NORMAL 33

Data provided by the Southern Regional Climate Center

2018-08-31 21:21:06.291898